Catalina Duchess — WDD2049 — position and weather

sailwx.info

Track history (hours):
 
Tides and Currents Weather Stations Pressure Air Temp Water Temp Dewpoint Dewpoint Depression Visibility Wind Speed Wind Dir Waves Ship Positions

Catalina Duchess

Owner: CATALINA CLASSIC CRUISES, INC., SAN DIEGO, CA. More information available from US FCC via Universal Licensing System and Coast Guard Vessel Documentation Center.

Last reported at 2017-Oct-16 21:00 UTC. Time now 2017-Oct-17 17:06 UTC.
Position N 33°45' W 118°12'.

Length 31 m; draft 2.5 m.

Type: Ship. MMSI: 367110260.

Date/timePositionNaut miles runAvg speedWind from/ knotsBaromVisibWave heightAir tempDewpointWater temp
2017-Oct-16 21:00N 33°45' W 118°12'4 7.6
2017-Oct-16 20:30N 33°41' W 118°11'713.1
2017-Oct-16 20:00N 33°37' W 118°17'1013.3
2017-Oct-16 19:13N 33°30' W 118°26'313.3
2017-Oct-16 19:00N 33°28' W 118°28'2 2.8
2017-Oct-16 18:18N 33°29' W 118°27'612.9
2017-Oct-16 17:49N 33°34' W 118°21'613.0
2017-Oct-16 17:20N 33°38' W 118°16'413.0
2017-Oct-16 17:00N 33°41' W 118°12'4 8.7
2017-Oct-16 16:30N 33°45' W 118°12'0 0.0
2017-Oct-16 15:58N 33°45' W 118°12'  
2017-Oct-14 05:20N 33°45' W 118°12'2 6.0
2017-Oct-14 05:00N 33°43' W 118°11'713.0
2017-Oct-14 04:31N 33°37' W 118°14'713.3
2017-Oct-14 04:01N 33°31' W 118°18'713.1
2017-Oct-14 03:30N 33°26' W 118°21'2 3.1
2017-Oct-14 03:00N 33°24' W 118°22'612.3
2017-Oct-14 02:30N 33°30' W 118°18'713.7
2017-Oct-14 02:00N 33°36' W 118°14'713.3
2017-Oct-14 01:30N 33°42' W 118°11'3 6.9
2017-Oct-14 01:00N 33°45' W 118°12'0 0.0
2017-Oct-14 00:30N 33°45' W 118°12'0 0.0
2017-Oct-14 00:00N 33°45' W 118°12'0 0.0
2017-Oct-13 23:30N 33°45' W 118°12'0 0.0
2017-Oct-13 23:00N 33°45' W 118°12'0 0.0
2017-Oct-13 22:30N 33°45' W 118°12'3 5.2
2017-Oct-13 22:00N 33°43' W 118°11'612.8
2017-Oct-13 21:30N 33°37' W 118°15'1013.0
2017-Oct-13 20:46N 33°31' W 118°24'412.8
2017-Oct-13 20:26N 33°28' W 118°28'2 2.0
2017-Oct-13 19:41N 33°27' W 118°29'213.1
2017-Oct-13 19:30N 33°29' W 118°27'813.4
2017-Oct-13 18:55N 33°35' W 118°21'613.4
2017-Oct-13 18:29N 33°39' W 118°16'613.1
2017-Oct-13 18:00N 33°44' W 118°11'2 0.0
2017-Oct-11 21:38N 33°45' W 118°12'1 3.7
2017-Oct-11 21:30N 33°45' W 118°11'612.5
2017-Oct-11 21:00N 33°39' W 118°13'713.2
2017-Oct-11 20:27N 33°33' W 118°17'612.8
2017-Oct-11 19:57N 33°27' W 118°20'3 6.7
2017-Oct-11 19:30N 33°24' W 118°22'4 8.0
2017-Oct-11 18:59N 33°26' W 118°27'3 3.5
2017-Oct-11 18:14N 33°27' W 118°29'312.6
2017-Oct-11 18:00N 33°29' W 118°27'912.6
2017-Oct-11 17:16N 33°36' W 118°19'512.6
2017-Oct-11 16:51N 33°40' W 118°14'6 0.1
2017-Oct-09 20:42N 33°45' W 118°12'1 2.7
2017-Oct-09 20:30N 33°45' W 118°11'612.4
2017-Oct-09 20:00N 33°39' W 118°14'714.1
2017-Oct-09 19:30N 33°35' W 118°20'713.1
2017-Oct-09 19:00N 33°30' W 118°26'5 6.5
2017-Oct-09 18:19N 33°27' W 118°30'1512.6
2017-Oct-09 17:05N 33°38' W 118°17'112.7
2017-Oct-09 16:59N 33°39' W 118°16'612.7
2017-Oct-09 16:30N 33°43' W 118°11'  
2017-Oct-06 22:45N 33°45' W 118°12'0 0.0
2017-Oct-06 22:30N 33°45' W 118°12'1 1.9
2017-Oct-06 22:00N 33°44' W 118°11'612.3
2017-Oct-06 21:30N 33°39' W 118°14'  
Track history (hours):
 
Tides and Currents Weather Stations Pressure Air Temp Water Temp Dewpoint Dewpoint Depression Visibility Wind Speed Wind Dir Waves Ship Positions

Catalina Duchess

Owner: CATALINA CLASSIC CRUISES, INC., SAN DIEGO, CA. More information available from US FCC via Universal Licensing System and Coast Guard Vessel Documentation Center.

Last reported at 2017-Oct-16 21:00 UTC. Time now 2017-Oct-17 17:06 UTC.
Position N 33°45' W 118°12'.

Length 31 m; draft 2.5 m.

Type: Ship. MMSI: 367110260.

Date/timePositionNaut miles runAvg speedWind from/ knotsBaromVisibWave heightAir tempDewpointWater temp
2017-Oct-16 21:00N 33°45' W 118°12'4 7.6
2017-Oct-16 20:30N 33°41' W 118°11'713.1
2017-Oct-16 20:00N 33°37' W 118°17'1013.3
2017-Oct-16 19:13N 33°30' W 118°26'313.3
2017-Oct-16 19:00N 33°28' W 118°28'2 2.8
2017-Oct-16 18:18N 33°29' W 118°27'612.9
2017-Oct-16 17:49N 33°34' W 118°21'613.0
2017-Oct-16 17:20N 33°38' W 118°16'413.0
2017-Oct-16 17:00N 33°41' W 118°12'4 8.7
2017-Oct-16 16:30N 33°45' W 118°12'0 0.0
2017-Oct-16 15:58N 33°45' W 118°12'  
2017-Oct-14 05:20N 33°45' W 118°12'2 6.0
2017-Oct-14 05:00N 33°43' W 118°11'713.0
2017-Oct-14 04:31N 33°37' W 118°14'713.3
2017-Oct-14 04:01N 33°31' W 118°18'713.1
2017-Oct-14 03:30N 33°26' W 118°21'2 3.1
2017-Oct-14 03:00N 33°24' W 118°22'612.3
2017-Oct-14 02:30N 33°30' W 118°18'713.7
2017-Oct-14 02:00N 33°36' W 118°14'713.3
2017-Oct-14 01:30N 33°42' W 118°11'3 6.9
2017-Oct-14 01:00N 33°45' W 118°12'0 0.0
2017-Oct-14 00:30N 33°45' W 118°12'0 0.0
2017-Oct-14 00:00N 33°45' W 118°12'0 0.0
2017-Oct-13 23:30N 33°45' W 118°12'0 0.0
2017-Oct-13 23:00N 33°45' W 118°12'0 0.0
2017-Oct-13 22:30N 33°45' W 118°12'3 5.2
2017-Oct-13 22:00N 33°43' W 118°11'612.8
2017-Oct-13 21:30N 33°37' W 118°15'1013.0
2017-Oct-13 20:46N 33°31' W 118°24'412.8
2017-Oct-13 20:26N 33°28' W 118°28'2 2.0
2017-Oct-13 19:41N 33°27' W 118°29'213.1
2017-Oct-13 19:30N 33°29' W 118°27'813.4
2017-Oct-13 18:55N 33°35' W 118°21'613.4
2017-Oct-13 18:29N 33°39' W 118°16'613.1
2017-Oct-13 18:00N 33°44' W 118°11'2 0.0
2017-Oct-11 21:38N 33°45' W 118°12'1 3.7
2017-Oct-11 21:30N 33°45' W 118°11'612.5
2017-Oct-11 21:00N 33°39' W 118°13'713.2
2017-Oct-11 20:27N 33°33' W 118°17'612.8
2017-Oct-11 19:57N 33°27' W 118°20'3 6.7
2017-Oct-11 19:30N 33°24' W 118°22'4 8.0
2017-Oct-11 18:59N 33°26' W 118°27'3 3.5
2017-Oct-11 18:14N 33°27' W 118°29'312.6
2017-Oct-11 18:00N 33°29' W 118°27'912.6
2017-Oct-11 17:16N 33°36' W 118°19'512.6
2017-Oct-11 16:51N 33°40' W 118°14'6 0.1
2017-Oct-09 20:42N 33°45' W 118°12'1 2.7
2017-Oct-09 20:30N 33°45' W 118°11'612.4
2017-Oct-09 20:00N 33°39' W 118°14'714.1
2017-Oct-09 19:30N 33°35' W 118°20'713.1
2017-Oct-09 19:00N 33°30' W 118°26'5 6.5
2017-Oct-09 18:19N 33°27' W 118°30'1512.6
2017-Oct-09 17:05N 33°38' W 118°17'112.7
2017-Oct-09 16:59N 33°39' W 118°16'612.7
2017-Oct-09 16:30N 33°43' W 118°11'  
2017-Oct-06 22:45N 33°45' W 118°12'0 0.0
2017-Oct-06 22:30N 33°45' W 118°12'1 1.9
2017-Oct-06 22:00N 33°44' W 118°11'612.3
2017-Oct-06 21:30N 33°39' W 118°14'  

Dump ship's entire track history